Time;durP1;ratioP1;P1;durP2;ratioP2;P2;SDS_P1;SDS_P2;PMS_P1;PMS_P2;Temp;Humidity;BMP_temperature;BMP_pressure;BME280_temperature;BME280_humidity;BME280_pressure;Samples;Min_cycle;Max_cycle;Signal;HPM_P1;HPM_P2
2024/02/04 00:01:54;;;;;;;6.85;3.03;;;;;;;10.82;72.86;100210.13;4962683;28;97973;-75
2024/02/04 00:04:20;;;;;;;3.47;2.58;;;;;;;10.82;73.18;100212.75;4987613;28;97985;-74
2024/02/04 00:06:45;;;;;;;5.43;2.55;;;;;;;10.72;73.26;100179.00;4978796;28;97687;-75
2024/02/04 00:09:11;;;;;;;1.92;1.48;;;;;;;10.75;72.74;100205.13;4968648;28;101313;-75
2024/02/04 00:11:36;;;;;;;2.72;1.52;;;;;;;10.75;72.85;100200.75;4984607;28;96804;-75
2024/02/04 00:14:02;;;;;;;3.55;1.90;;;;;;;10.83;72.72;100214.44;4977125;28;96970;-75
2024/02/04 00:16:29;;;;;;;3.70;1.95;;;;;;;10.86;72.41;100221.34;4954016;28;99813;-74
2024/02/04 00:18:54;;;;;;;1.75;1.08;;;;;;;10.72;72.05;100200.00;4964462;28;101898;-74
2024/02/04 00:21:20;;;;;;;1.38;0.95;;;;;;;10.66;72.16;100206.31;4957507;28;96760;-74
2024/02/04 00:23:45;;;;;;;2.60;1.10;;;;;;;10.60;71.37;100194.28;4974206;28;97140;-75
2024/02/04 00:26:10;;;;;;;2.58;0.80;;;;;;;10.69;71.28;100221.97;4968826;28;98028;-74
2024/02/04 00:28:36;;;;;;;3.88;0.85;;;;;;;10.58;71.05;100208.38;4972002;28;98307;-75
2024/02/04 00:31:02;;;;;;;4.72;1.48;;;;;;;10.69;70.39;100223.75;4962626;28;96772;-75
2024/02/04 00:33:27;;;;;;;2.13;0.70;;;;;;;10.58;70.91;100218.88;4972488;28;96960;-75
2024/02/04 00:35:53;;;;;;;2.65;1.23;;;;;;;10.57;70.27;100215.38;4986959;28;101107;-75
2024/02/04 00:38:18;;;;;;;0.80;0.80;;;;;;;10.41;70.53;100216.81;4970036;28;101203;-74
2024/02/04 00:40:44;;;;;;;1.42;0.95;;;;;;;10.37;70.58;100223.97;4952962;28;96892;-75
2024/02/04 00:43:09;;;;;;;3.75;1.00;;;;;;;10.35;70.51;100214.41;4965530;28;97211;-76
2024/02/04 00:45:34;;;;;;;3.15;1.50;;;;;;;10.30;71.05;100204.09;4981469;28;98037;-74
2024/02/04 00:48:00;;;;;;;4.80;1.02;;;;;;;10.40;70.94;100210.72;4977815;28;98190;-75
2024/02/04 00:50:26;;;;;;;2.22;1.00;;;;;;;10.20;71.15;100205.28;4953263;28;97051;-75
2024/02/04 00:52:53;;;;;;;1.55;0.77;;;;;;;10.33;70.79;100209.25;4967317;28;97393;-77
2024/02/04 00:55:19;;;;;;;2.53;1.02;;;;;;;10.47;71.02;100200.91;4957678;28;98086;-75
2024/02/04 00:57:45;;;;;;;1.73;1.00;;;;;;;10.47;70.77;100214.03;4956065;28;101429;-75
2024/02/04 01:00:12;;;;;;;2.70;1.00;;;;;;;10.30;70.68;100190.97;4970849;28;96782;-75
2024/02/04 01:02:39;;;;;;;1.67;0.90;;;;;;;10.38;70.47;100206.44;4959348;28;97396;-76
2024/02/04 01:05:05;;;;;;;1.95;0.90;;;;;;;10.45;70.84;100220.22;4970571;28;99462;-75
2024/02/04 01:07:30;;;;;;;2.55;0.90;;;;;;;10.48;70.58;100220.97;4950853;28;100972;-75
2024/02/04 01:09:56;;;;;;;1.48;0.90;;;;;;;10.50;70.47;100216.53;4966109;28;96924;-75
2024/02/04 01:12:21;;;;;;;2.15;0.95;;;;;;;10.55;70.08;100230.31;4949516;28;97538;-78
2024/02/04 01:14:47;;;;;;;2.03;1.10;;;;;;;10.38;69.61;100201.19;4962631;28;101471;-76
2024/02/04 01:17:12;;;;;;;2.65;1.63;;;;;;;10.48;69.40;100214.88;4946551;28;101226;-75
2024/02/04 01:19:38;;;;;;;2.63;1.20;;;;;;;10.13;69.52;100175.78;4969301;28;96801;-75
2024/02/04 01:22:05;;;;;;;2.65;1.23;;;;;;;10.31;69.47;100218.06;4959618;28;96908;-75
2024/02/04 01:24:31;;;;;;;2.83;1.20;;;;;;;10.34;69.27;100210.94;4961795;28;101176;-75
2024/02/04 01:26:57;;;;;;;4.57;1.40;;;;;;;10.28;69.59;100190.19;4972337;28;98779;-75
2024/02/04 01:29:22;;;;;;;2.97;1.90;;;;;;;10.49;69.36;100212.19;4973237;28;97897;-75
2024/02/04 01:31:47;;;;;;;1.40;0.93;;;;;;;10.34;69.38;100194.34;4971019;28;96840;-75
2024/02/04 01:34:13;;;;;;;3.25;1.08;;;;;;;10.33;69.70;100208.41;4936609;28;101143;-76
2024/02/04 01:36:38;;;;;;;3.58;1.50;;;;;;;10.28;69.57;100202.44;4969774;28;97967;-76
2024/02/04 01:39:04;;;;;;;1.83;0.98;;;;;;;10.17;70.05;100211.50;4987149;28;97862;-75
2024/02/04 01:41:30;;;;;;;3.08;1.20;;;;;;;10.33;69.73;100211.88;4963434;28;96851;-76
2024/02/04 01:43:56;;;;;;;2.67;1.00;;;;;;;10.43;69.32;100213.25;4976205;28;97474;-75
2024/02/04 01:46:22;;;;;;;2.35;1.00;;;;;;;10.45;69.33;100204.47;4950411;28;101288;-75
2024/02/04 01:48:48;;;;;;;2.55;1.13;;;;;;;10.50;69.15;100205.16;4963043;28;96986;-75
2024/02/04 01:51:14;;;;;;;2.13;1.25;;;;;;;10.23;69.57;100176.31;4971608;28;97185;-75
2024/02/04 01:53:42;;;;;;;2.67;1.10;;;;;;;10.27;69.65;100162.25;4955269;28;101491;-75
2024/02/04 01:56:07;;;;;;;2.63;1.70;;;;;;;10.49;69.66;100192.94;4937830;28;101101;-77
2024/02/04 01:58:34;;;;;;;4.55;1.45;;;;;;;10.32;70.36;100177.81;4950837;28;96738;-75
2024/02/04 02:00:59;;;;;;;2.80;1.20;;;;;;;10.27;70.72;100177.09;4962974;28;97817;-76
2024/02/04 02:03:26;;;;;;;2.40;1.40;;;;;;;10.23;70.86;100163.19;4950190;28;101883;-75
2024/02/04 02:05:52;;;;;;;2.38;1.55;;;;;;;10.30;71.13;100183.13;4951064;28;101037;-75
2024/02/04 02:08:17;;;;;;;2.70;1.52;;;;;;;10.17;71.00;100151.16;4965174;28;96723;-76
2024/02/04 02:10:46;;;;;;;6.63;2.33;;;;;;;10.19;71.62;100167.72;4962626;28;97710;-75
2024/02/04 02:13:18;;;;;;;3.53;1.70;;;;;;;10.05;71.25;100148.13;4959959;28;101263;-75
2024/02/04 02:15:49;;;;;;;2.45;1.20;;;;;;;10.40;71.17;100175.75;4956735;28;101327;-75
2024/02/04 02:18:17;;;;;;;2.85;1.45;;;;;;;10.31;71.21;100178.72;4947281;28;98169;-75
2024/02/04 02:21:28;;;;;;;3.05;1.60;;;;;;;10.36;71.68;100187.28;4959016;28;96931;-77
2024/02/04 02:24:11;;;;;;;2.83;1.58;;;;;;;10.41;70.63;100175.72;4951083;28;101133;-76
2024/02/04 02:26:40;;;;;;;2.38;1.15;;;;;;;10.37;71.12;100165.38;4952237;28;98207;-78
2024/02/04 02:29:08;;;;;;;4.10;1.60;;;;;;;10.57;70.70;100186.50;4955032;28;97125;-75
2024/02/04 02:31:35;;;;;;;2.75;1.83;;;;;;;10.56;70.68;100183.94;4953879;28;96866;-75
2024/02/04 02:34:00;;;;;;;2.78;1.42;;;;;;;10.45;70.68;100173.84;4969016;28;97994;-75
2024/02/04 02:36:26;;;;;;;2.22;1.55;;;;;;;10.41;70.37;100154.72;4984968;28;97343;-75
2024/02/04 02:39:24;;;;;;;4.28;1.33;;;;;;;10.31;70.34;100171.69;4980917;28;96781;-75
2024/02/04 02:41:55;;;;;;;1.98;1.38;;;;;;;10.25;70.47;100165.78;4967424;28;96793;-75
2024/02/04 02:44:26;;;;;;;2.60;1.73;;;;;;;9.93;70.36;100147.63;4961176;28;98543;-75
2024/02/04 02:46:53;;;;;;;2.80;1.70;;;;;;;10.03;70.30;100186.63;4941640;28;101121;-75
2024/02/04 02:49:18;;;;;;;2.20;1.35;;;;;;;9.93;70.22;100181.72;4950129;28;97320;-75
2024/02/04 02:51:44;;;;;;;1.77;1.33;;;;;;;9.86;69.63;100195.06;4939913;28;97315;-75
2024/02/04 02:54:09;;;;;;;2.53;1.25;;;;;;;9.93;69.71;100189.56;4963818;28;97639;-77
2024/02/04 02:56:35;;;;;;;2.58;1.02;;;;;;;10.01;69.91;100178.00;4950654;28;97986;-75
2024/02/04 02:59:00;;;;;;;3.22;1.00;;;;;;;10.04;69.25;100177.88;4961999;28;96826;-75
2024/02/04 03:01:26;;;;;;;3.05;1.17;;;;;;;9.97;68.71;100179.84;4954911;28;96876;-74
2024/02/04 03:03:51;;;;;;;3.75;1.08;;;;;;;9.85;68.74;100165.38;4957425;28;101167;-75
2024/02/04 03:06:17;;;;;;;4.65;1.88;;;;;;;9.85;68.62;100170.63;4972556;28;101866;-75
2024/02/04 03:08:42;;;;;;;2.92;1.13;;;;;;;9.77;68.46;100162.16;4972022;28;96806;-74
2024/02/04 03:11:07;;;;;;;1.42;0.98;;;;;;;9.74;68.50;100168.38;4975287;28;97287;-75
2024/02/04 03:13:33;;;;;;;3.45;0.82;;;;;;;9.70;68.88;100144.91;4974209;28;97450;-75
2024/02/04 03:15:59;;;;;;;2.95;0.80;;;;;;;9.85;68.45;100156.66;5008555;28;100761;-73
2024/02/04 03:18:24;;;;;;;3.35;1.02;;;;;;;9.73;68.94;100145.66;4959510;28;97406;-73
2024/02/04 03:20:50;;;;;;;5.63;1.20;;;;;;;9.82;68.52;100156.75;4997330;28;96767;-73
2024/02/04 03:23:15;;;;;;;2.75;1.02;;;;;;;9.64;68.42;100153.84;4968322;28;101228;-73
2024/02/04 03:25:41;;;;;;;3.72;1.08;;;;;;;9.71;68.50;100154.50;4979777;28;97914;-73
2024/02/04 03:28:06;;;;;;;3.33;1.10;;;;;;;9.79;67.78;100181.31;4973305;28;96800;-73
2024/02/04 03:30:32;;;;;;;5.10;1.02;;;;;;;9.78;67.67;100165.66;4962266;28;96793;-73
2024/02/04 03:32:57;;;;;;;2.10;0.95;;;;;;;9.65;67.88;100170.41;4976819;28;101370;-73
2024/02/04 03:35:23;;;;;;;2.03;0.90;;;;;;;9.79;68.00;100175.22;4970696;28;100586;-75
2024/02/04 03:37:49;;;;;;;2.78;1.13;;;;;;;9.82;67.65;100157.63;4974000;28;97394;-74
2024/02/04 03:40:14;;;;;;;2.63;0.85;;;;;;;9.76;67.46;100176.16;4974167;28;96869;-73
2024/02/04 03:42:40;;;;;;;6.18;1.00;;;;;;;9.59;67.81;100184.56;4975270;28;97938;-74
2024/02/04 03:45:06;;;;;;;3.50;0.60;;;;;;;9.52;67.30;100177.84;4957044;28;101425;-73
2024/02/04 03:47:32;;;;;;;1.50;0.93;;;;;;;9.47;67.62;100177.97;4976780;28;96744;-74
2024/02/04 03:49:57;;;;;;;1.83;0.90;;;;;;;9.48;67.02;100189.28;4978212;28;97655;-73
2024/02/04 03:52:23;;;;;;;3.13;1.00;;;;;;;9.42;66.92;100192.97;4966200;28;100143;-73
2024/02/04 03:54:48;;;;;;;2.20;0.90;;;;;;;9.47;66.84;100184.97;4970611;28;101165;-76
2024/02/04 03:57:14;;;;;;;2.67;0.98;;;;;;;9.61;65.45;100200.25;4962074;28;97405;-74
2024/02/04 03:59:39;;;;;;;2.65;1.08;;;;;;;9.54;65.48;100199.63;4976914;28;96968;-73
2024/02/04 04:02:05;;;;;;;9.93;1.40;;;;;;;9.50;65.12;100211.94;4998358;28;97952;-73
2024/02/04 04:04:31;;;;;;;3.47;0.88;;;;;;;9.54;64.62;100210.09;4957504;28;101029;-74
2024/02/04 04:06:56;;;;;;;1.60;0.80;;;;;;;9.47;64.72;100195.44;4975903;28;98120;-73
2024/02/04 04:09:22;;;;;;;4.50;1.38;;;;;;;9.54;63.99;100199.63;5007316;28;96761;-73
2024/02/04 04:11:47;;;;;;;5.50;1.42;;;;;;;9.47;64.15;100185.81;4971802;28;100976;-73
2024/02/04 04:14:13;;;;;;;4.00;1.20;;;;;;;9.41;63.81;100186.03;4989599;28;97603;-73
2024/02/04 04:16:38;;;;;;;4.53;1.20;;;;;;;9.52;63.66;100211.91;4957083;28;96819;-75
2024/02/04 04:19:04;;;;;;;5.07;1.30;;;;;;;9.57;64.01;100216.97;4992709;28;97099;-74
2024/02/04 04:21:29;;;;;;;3.50;1.00;;;;;;;9.46;63.80;100218.19;4957050;28;101452;-74
2024/02/04 04:23:54;;;;;;;5.97;1.38;;;;;;;9.56;63.52;100212.66;4990158;28;98352;-73
2024/02/04 04:26:20;;;;;;;6.55;1.88;;;;;;;9.66;63.58;100209.69;4990788;28;97103;-73
2024/02/04 04:28:45;;;;;;;9.02;1.27;;;;;;;9.68;63.17;100220.97;4977112;28;96818;-73
2024/02/04 04:31:11;;;;;;;4.82;1.08;;;;;;;9.80;63.19;100227.59;4992408;28;98457;-73
2024/02/04 04:33:36;;;;;;;4.60;1.30;;;;;;;9.72;63.26;100204.25;4973286;28;100877;-73
2024/02/04 04:36:02;;;;;;;2.25;1.20;;;;;;;9.90;62.66;100231.63;5003346;28;96718;-73
2024/02/04 04:38:27;;;;;;;4.78;1.20;;;;;;;9.73;63.01;100200.72;4970399;28;96890;-74
2024/02/04 04:40:53;;;;;;;3.97;1.08;;;;;;;9.90;62.77;100212.44;5005584;28;97603;-73
2024/02/04 04:43:19;;;;;;;3.25;1.20;;;;;;;9.72;63.00;100224.38;4980076;28;97369;-74
2024/02/04 04:45:44;;;;;;;5.53;1.40;;;;;;;9.68;63.11;100214.88;4976602;28;96835;-74
2024/02/04 04:48:10;;;;;;;4.80;1.20;;;;;;;9.80;62.86;100214.47;4980763;28;96828;-74
2024/02/04 04:50:35;;;;;;;3.92;1.30;;;;;;;9.71;63.19;100218.25;4974217;28;101005;-73
2024/02/04 04:53:01;;;;;;;4.85;1.17;;;;;;;9.81;63.08;100218.81;4975675;28;101380;-73
2024/02/04 04:55:27;;;;;;;5.25;2.00;;;;;;;9.74;63.32;100219.91;4985403;28;97192;-73
2024/02/04 04:57:52;;;;;;;5.15;2.45;;;;;;;9.64;64.32;100226.38;4962313;28;96963;-73
2024/02/04 05:00:18;;;;;;;2.90;1.20;;;;;;;9.55;64.79;100229.28;5013035;28;98042;-73
2024/02/04 05:02:44;;;;;;;4.88;1.27;;;;;;;9.71;64.37;100214.78;4989701;28;99619;-75
2024/02/04 05:05:13;;;;;;;4.45;1.30;;;;;;;9.73;64.08;100216.44;4979407;28;96859;-75
2024/02/04 05:07:39;;;;;;;4.35;1.15;;;;;;;9.74;64.34;100206.81;4959355;28;97459;-73
2024/02/04 05:10:05;;;;;;;6.47;1.45;;;;;;;9.62;63.87;100194.97;4980027;28;97446;-74
2024/02/04 05:12:32;;;;;;;7.60;1.55;;;;;;;9.63;64.47;100204.56;4979056;28;101638;-73
2024/02/04 05:14:57;;;;;;;2.67;1.20;;;;;;;9.59;64.86;100209.94;4987725;28;97753;-73
2024/02/04 05:17:23;;;;;;;4.20;1.27;;;;;;;9.60;64.02;100196.78;4975790;28;97294;-73
2024/02/04 05:19:48;;;;;;;4.32;1.42;;;;;;;9.52;64.27;100190.94;4976578;28;98154;-73
2024/02/04 05:22:14;;;;;;;6.40;1.38;;;;;;;9.68;63.75;100215.72;4995759;28;98088;-74
2024/02/04 05:24:41;;;;;;;4.10;1.30;;;;;;;9.66;63.18;100206.22;4971058;28;97293;-74
2024/02/04 05:27:06;;;;;;;5.13;1.33;;;;;;;9.71;63.11;100210.38;4979212;28;96887;-73
2024/02/04 05:29:32;;;;;;;5.32;1.40;;;;;;;9.65;63.51;100220.22;4969433;28;101528;-73
2024/02/04 05:31:57;;;;;;;2.92;1.27;;;;;;;9.64;63.13;100227.22;5011375;28;97457;-73
2024/02/04 05:34:23;;;;;;;4.75;1.40;;;;;;;9.61;63.58;100243.06;4993714;28;97127;-73
2024/02/04 05:36:48;;;;;;;5.68;1.75;;;;;;;9.53;62.89;100230.16;4976422;28;96896;-75
2024/02/04 05:39:15;;;;;;;3.90;1.23;;;;;;;9.56;63.58;100229.22;4973289;28;99559;-75
2024/02/04 05:41:41;;;;;;;4.95;1.50;;;;;;;9.59;63.31;100247.47;4975882;28;97341;-73
2024/02/04 05:44:08;;;;;;;4.13;2.00;;;;;;;9.63;62.70;100249.13;4973052;28;96834;-73
2024/02/04 05:46:38;;;;;;;5.07;1.27;;;;;;;9.49;62.71;100251.28;4958999;28;97369;-75
2024/02/04 05:49:03;;;;;;;4.75;1.58;;;;;;;9.51;62.37;100223.25;4978269;28;97469;-73
2024/02/04 05:51:29;;;;;;;3.72;1.17;;;;;;;9.55;62.21;100245.00;4968793;28;100603;-76
2024/02/04 05:53:55;;;;;;;5.50;1.63;;;;;;;9.55;62.16;100235.38;4976837;28;96844;-73
2024/02/04 05:56:21;;;;;;;4.78;1.80;;;;;;;9.60;62.11;100243.09;4979968;28;96958;-73
2024/02/04 05:58:46;;;;;;;5.00;1.40;;;;;;;9.51;62.10;100232.00;4971702;28;101441;-73
2024/02/04 06:01:12;;;;;;;4.80;1.75;;;;;;;9.46;62.43;100235.66;4978392;28;101121;-73
2024/02/04 06:03:38;;;;;;;7.53;1.40;;;;;;;9.39;62.97;100247.22;4994721;28;96902;-74
2024/02/04 06:06:03;;;;;;;6.95;2.03;;;;;;;9.29;62.99;100242.28;4970633;28;96997;-73
2024/02/04 06:08:29;;;;;;;6.57;2.05;;;;;;;9.06;62.77;100221.16;4977153;28;98523;-73
2024/02/04 06:10:55;;;;;;;4.88;1.60;;;;;;;9.12;63.10;100238.44;4967576;28;100924;-73
2024/02/04 06:13:20;;;;;;;8.65;1.60;;;;;;;9.19;63.02;100253.06;4968512;28;96824;-72
2024/02/04 06:15:46;;;;;;;4.10;1.23;;;;;;;9.25;62.85;100242.38;4977985;28;96939;-73
2024/02/04 06:18:12;;;;;;;6.95;1.60;;;;;;;9.26;62.81;100244.13;4985924;28;97575;-73
2024/02/04 06:20:37;;;;;;;3.90;1.30;;;;;;;9.23;62.96;100238.97;4999488;28;98131;-73
2024/02/04 06:23:03;;;;;;;5.68;1.40;;;;;;;9.13;62.59;100222.66;4987671;28;96732;-72
2024/02/04 06:25:28;;;;;;;5.97;1.40;;;;;;;9.16;62.29;100247.91;4977937;28;97178;-73
2024/02/04 06:27:54;;;;;;;4.30;1.40;;;;;;;9.18;62.38;100246.13;4974472;28;101213;-73
2024/02/04 06:30:19;;;;;;;4.30;1.92;;;;;;;9.16;62.58;100247.91;4960691;28;101355;-78
2024/02/04 06:32:45;;;;;;;4.22;1.25;;;;;;;9.28;62.41;100253.66;4975003;28;96895;-73
2024/02/04 06:35:11;;;;;;;4.93;1.65;;;;;;;9.19;61.74;100237.34;4983205;28;97218;-73
2024/02/04 06:37:36;;;;;;;6.32;1.45;;;;;;;9.22;62.07;100256.47;4991402;28;97619;-73
2024/02/04 06:40:02;;;;;;;7.78;1.70;;;;;;;9.15;62.58;100246.19;4978851;28;97715;-73
2024/02/04 06:42:27;;;;;;;7.00;1.80;;;;;;;9.13;61.73;100229.66;4985058;28;96840;-73
2024/02/04 06:44:53;;;;;;;4.55;1.52;;;;;;;9.05;61.80;100220.28;5010063;28;97195;-73
2024/02/04 06:47:18;;;;;;;5.32;1.77;;;;;;;9.21;62.01;100248.63;4957376;28;101704;-73
2024/02/04 06:49:47;;;;;;;7.68;2.08;;;;;;;9.29;61.76;100244.88;4951225;28;101441;-73
2024/02/04 06:52:12;;;;;;;7.85;1.77;;;;;;;9.10;62.22;100225.38;4956273;28;97246;-73
2024/02/04 06:54:38;;;;;;;4.00;1.52;;;;;;;9.26;61.66;100236.28;4964696;28;97074;-73
2024/02/04 06:57:03;;;;;;;8.82;1.92;;;;;;;9.24;61.29;100238.06;4976510;28;98318;-73
2024/02/04 06:59:29;;;;;;;5.75;1.65;;;;;;;9.14;61.40;100228.78;4977938;28;97370;-72
2024/02/04 07:01:55;;;;;;;3.58;1.30;;;;;;;9.19;61.81;100219.00;4966354;28;96843;-76
2024/02/04 07:04:24;;;;;;;5.78;1.83;;;;;;;9.38;61.13;100235.91;4991499;28;97201;-73
2024/02/04 07:06:51;;;;;;;6.63;1.85;;;;;;;9.20;61.21;100232.06;4996490;28;97338;-73
2024/02/04 07:09:16;;;;;;;7.65;2.38;;;;;;;9.26;61.51;100228.41;4974749;28;97787;-73
2024/02/04 07:11:43;;;;;;;5.80;1.55;;;;;;;9.34;61.28;100226.44;4960972;28;96827;-73
2024/02/04 07:14:08;;;;;;;5.38;1.35;;;;;;;9.28;61.42;100227.47;4983881;28;97126;-73
2024/02/04 07:16:34;;;;;;;7.38;1.80;;;;;;;9.38;61.38;100225.41;4980245;28;98219;-73
2024/02/04 07:18:59;;;;;;;8.32;2.35;;;;;;;9.40;61.43;100215.75;4981723;28;97485;-72
2024/02/04 07:21:25;;;;;;;9.52;2.17;;;;;;;9.49;61.26;100212.00;4953913;28;97108;-74
2024/02/04 07:23:50;;;;;;;8.35;2.63;;;;;;;9.62;61.30;100208.06;4957683;28;97306;-73
2024/02/04 07:26:16;;;;;;;6.68;2.10;;;;;;;9.82;60.46;100212.66;4983551;28;101349;-72
2024/02/04 07:28:41;;;;;;;4.80;2.20;;;;;;;9.98;60.28;100211.28;4995533;28;97966;-72
2024/02/04 07:31:07;;;;;;;7.18;1.98;;;;;;;10.13;60.12;100199.41;5001489;28;97011;-72
2024/02/04 07:33:32;;;;;;;7.43;2.00;;;;;;;10.20;59.67;100211.38;4991424;28;96850;-72
2024/02/04 07:35:58;;;;;;;8.10;1.92;;;;;;;10.22;59.68;100205.25;4971388;28;97614;-72
2024/02/04 07:38:23;;;;;;;7.28;1.67;;;;;;;10.58;59.10;100211.00;4973347;28;101738;-72
2024/02/04 07:40:49;;;;;;;4.88;1.70;;;;;;;10.76;58.30;100196.34;4984456;28;97433;-72
2024/02/04 07:43:14;;;;;;;6.10;2.58;;;;;;;11.06;58.05;100203.09;4974368;28;98350;-73
2024/02/04 07:45:40;;;;;;;8.55;2.05;;;;;;;10.99;57.30;100212.09;4951462;28;101283;-75
2024/02/04 07:48:06;;;;;;;10.43;2.17;;;;;;;11.01;57.69;100217.31;4969643;28;101513;-73
2024/02/04 07:50:32;;;;;;;5.95;2.17;;;;;;;11.30;56.86;100216.19;4979114;28;98136;-75
2024/02/04 07:52:57;;;;;;;4.18;1.67;;;;;;;11.69;56.24;100215.53;4976532;28;96897;-73
2024/02/04 07:55:23;;;;;;;5.35;2.10;;;;;;;11.69;55.96;100174.34;5004893;28;97371;-76
2024/02/04 07:57:48;;;;;;;4.22;1.45;;;;;;;12.05;55.25;100191.31;4988086;28;97657;-73
2024/02/04 08:00:14;;;;;;;4.25;1.63;;;;;;;12.14;54.12;100168.09;4969782;28;97271;-74
2024/02/04 08:02:40;;;;;;;3.75;1.70;;;;;;;12.51;54.29;100179.66;5002892;28;96866;-75
2024/02/04 08:05:06;;;;;;;7.90;2.13;;;;;;;12.91;53.08;100207.72;4992916;28;97765;-76
2024/02/04 08:07:32;;;;;;;4.20;1.52;;;;;;;12.93;52.41;100204.13;4969607;28;101108;-73
2024/02/04 08:09:57;;;;;;;6.82;1.73;;;;;;;13.11;52.08;100193.59;4989440;28;96814;-73
2024/02/04 08:12:23;;;;;;;4.78;1.70;;;;;;;13.36;50.79;100192.47;4954358;28;98043;-73
2024/02/04 08:14:49;;;;;;;3.22;1.20;;;;;;;13.15;51.49;100194.31;5004398;28;97435;-73
2024/02/04 08:17:14;;;;;;;5.72;1.40;;;;;;;12.84;51.79;100195.72;4985569;28;97554;-73
2024/02/04 08:19:41;;;;;;;7.28;1.90;;;;;;;12.47;52.13;100199.13;4969915;28;96822;-74
2024/02/04 08:22:06;;;;;;;7.30;2.38;;;;;;;12.51;52.05;100195.47;4971319;28;96870;-77
2024/02/04 08:24:32;;;;;;;4.43;1.70;;;;;;;12.54;51.89;100179.53;4975790;28;100024;-73
2024/02/04 08:26:58;;;;;;;6.53;1.80;;;;;;;12.45;51.61;100191.31;4981900;28;97420;-73
2024/02/04 08:29:24;;;;;;;3.42;1.50;;;;;;;12.14;52.32;100168.09;5006828;28;96705;-73
2024/02/04 08:31:51;;;;;;;10.27;2.25;;;;;;;12.06;51.80;100187.75;4973319;28;97075;-73
2024/02/04 08:34:17;;;;;;;8.98;2.15;;;;;;;11.83;52.43;100186.06;4977089;28;98082;-73
2024/02/04 08:36:42;;;;;;;5.82;1.65;;;;;;;11.71;52.69;100190.03;4967970;28;100778;-74
2024/02/04 08:39:09;;;;;;;7.43;1.92;;;;;;;11.60;53.06;100169.44;4993722;28;96883;-73
2024/02/04 08:41:34;;;;;;;6.72;1.55;;;;;;;11.72;53.43;100184.72;4976503;28;96927;-74
2024/02/04 08:44:00;;;;;;;6.90;2.17;;;;;;;11.58;53.48;100181.81;4981133;28;101815;-74
2024/02/04 08:46:25;;;;;;;5.90;1.50;;;;;;;11.52;53.63;100189.94;4996285;28;98223;-76
2024/02/04 08:48:51;;;;;;;5.95;1.80;;;;;;;11.28;53.69;100158.44;4972151;28;96880;-74
2024/02/04 08:51:18;;;;;;;12.82;2.25;;;;;;;11.38;54.12;100185.22;4987760;28;96977;-73
2024/02/04 08:53:43;;;;;;;6.63;1.45;;;;;;;11.45;54.04;100172.69;4993612;28;97938;-74
2024/02/04 08:56:09;;;;;;;8.45;2.30;;;;;;;11.41;53.87;100192.13;4993224;28;97424;-77
2024/02/04 08:58:36;;;;;;;5.32;1.80;;;;;;;11.26;53.76;100186.56;4975101;28;96899;-74
2024/02/04 09:01:03;;;;;;;4.18;1.38;;;;;;;11.15;53.89;100182.63;4991509;28;97306;-75
2024/02/04 09:03:29;;;;;;;8.02;2.72;;;;;;;11.30;54.03;100185.50;4978707;28;97543;-75
2024/02/04 09:05:55;;;;;;;5.50;1.80;;;;;;;11.26;54.68;100180.47;4976176;28;100936;-73
2024/02/04 09:08:20;;;;;;;5.07;1.60;;;;;;;11.13;54.46;100180.06;4961909;28;97368;-74
2024/02/04 09:10:46;;;;;;;6.13;1.70;;;;;;;11.15;54.99;100170.34;4976897;28;96978;-75
2024/02/04 09:13:11;;;;;;;7.45;2.28;;;;;;;11.06;54.47;100171.56;4979186;28;98201;-73
2024/02/04 09:15:37;;;;;;;5.65;1.67;;;;;;;11.07;54.48;100168.00;4965470;28;101888;-73
2024/02/04 09:18:03;;;;;;;3.85;1.50;;;;;;;11.10;54.80;100173.16;4971310;28;97524;-73
2024/02/04 09:20:28;;;;;;;7.15;1.80;;;;;;;10.86;54.84;100161.81;5010669;28;96912;-74
2024/02/04 09:22:54;;;;;;;5.38;1.75;;;;;;;11.12;54.41;100157.34;4991062;28;101222;-74
2024/02/04 09:25:19;;;;;;;8.68;2.17;;;;;;;11.06;54.65;100155.81;4962025;28;101521;-71
2024/02/04 09:27:45;;;;;;;8.00;2.08;;;;;;;10.85;55.27;100144.34;5004705;28;97018;-73
2024/02/04 09:30:11;;;;;;;6.65;1.38;;;;;;;10.91;55.89;100158.16;4992867;28;98152;-74
2024/02/04 09:32:37;;;;;;;5.32;1.77;;;;;;;10.96;55.84;100150.94;4968827;28;101326;-73
2024/02/04 09:35:03;;;;;;;7.88;1.55;;;;;;;10.75;55.82;100129.84;4971697;28;101114;-72
2024/02/04 09:37:29;;;;;;;7.70;2.80;;;;;;;10.97;55.90;100155.31;4974084;28;97199;-72
2024/02/04 09:39:54;;;;;;;7.30;2.75;;;;;;;10.83;56.03;100133.03;4974875;28;97430;-72
2024/02/04 09:42:24;;;;;;;5.95;1.52;;;;;;;10.72;56.21;100135.22;4984253;28;97480;-72
2024/02/04 09:44:50;;;;;;;6.93;2.00;;;;;;;10.84;56.17;100157.53;5011070;28;97485;-74
2024/02/04 09:47:16;;;;;;;8.18;2.03;;;;;;;10.76;56.94;100156.97;4976862;28;97027;-72
2024/02/04 09:49:45;;;;;;;6.75;1.88;;;;;;;10.70;57.37;100133.56;4980250;28;96899;-72
2024/02/04 09:52:13;;;;;;;7.30;2.05;;;;;;;10.56;57.43;100134.06;4976122;28;101373;-74
2024/02/04 09:54:47;;;;;;;7.45;2.35;;;;;;;10.61;57.99;100143.47;4960893;28;101588;-73
2024/02/04 09:57:14;;;;;;;5.65;2.47;;;;;;;10.63;57.79;100125.91;4958743;28;97674;-73
2024/02/04 09:59:39;;;;;;;5.63;2.10;;;;;;;10.67;57.76;100096.91;4959394;28;97476;-79
2024/02/04 10:02:05;;;;;;;7.35;2.20;;;;;;;10.79;57.76;100120.06;4957474;28;101674;-73
2024/02/04 10:04:31;;;;;;;8.50;1.80;;;;;;;10.67;58.01;100110.03;4955115;28;97975;-76
2024/02/04 10:06:56;;;;;;;7.75;2.08;;;;;;;10.61;58.00;100085.72;4963102;28;98751;-75
2024/02/04 10:09:22;;;;;;;7.50;2.13;;;;;;;10.75;58.48;100106.22;4959873;28;97931;-73
2024/02/04 10:11:48;;;;;;;5.43;2.13;;;;;;;10.90;58.02;100110.03;4975948;28;98084;-78
2024/02/04 10:14:13;;;;;;;6.35;2.03;;;;;;;10.75;57.61;100085.22;4963230;28;97796;-78
2024/02/04 10:16:40;;;;;;;6.22;2.33;;;;;;;10.83;58.60;100098.91;4981374;28;97596;-76
2024/02/04 10:19:06;;;;;;;7.55;3.42;;;;;;;10.75;58.63;100081.75;4995409;28;97029;-74
2024/02/04 10:21:31;;;;;;;8.05;2.20;;;;;;;10.80;58.51;100098.19;4960621;28;98436;-78
2024/02/04 10:23:57;;;;;;;7.30;2.30;;;;;;;10.81;58.75;100099.88;4977994;28;101612;-74
2024/02/04 10:26:23;;;;;;;9.45;2.47;;;;;;;10.74;58.84;100085.28;4957439;28;96883;-74
2024/02/04 10:28:49;;;;;;;6.88;2.40;;;;;;;10.69;59.32;100095.09;4980323;28;98551;-77
2024/02/04 10:31:15;;;;;;;6.80;2.60;;;;;;;10.63;59.69;100075.19;4992628;28;98029;-73
2024/02/04 10:33:40;;;;;;;7.22;2.38;;;;;;;10.90;59.62;100093.41;4969411;28;97468;-75
2024/02/04 10:36:06;;;;;;;7.75;2.33;;;;;;;10.88;59.90;100078.59;4979865;28;96926;-77
2024/02/04 10:38:32;;;;;;;7.88;2.63;;;;;;;11.03;60.40;100074.50;4972040;28;98168;-74
2024/02/04 10:41:01;;;;;;;13.43;2.90;;;;;;;11.03;60.73;100060.50;4958750;28;100637;-89
2024/02/04 10:43:36;;;;;;;9.07;2.90;;;;;;;11.11;60.60;100066.28;4981286;28;101669;-89
2024/02/04 10:46:10;;;;;;;8.60;3.03;;;;;;;11.15;60.72;100051.28;4976911;28;96778;-89
2024/02/04 10:48:41;;;;;;;8.45;3.17;;;;;;;11.08;61.01;100050.66;4980029;28;97188;-91
2024/02/04 10:51:15;;;;;;;4.38;2.72;;;;;;;11.32;61.57;100048.81;4953458;28;100581;-88
2024/02/04 10:53:46;;;;;;;7.38;3.20;;;;;;;11.17;61.66;100034.56;4962946;28;98270;-90
2024/02/04 10:56:52;;;;;;;5.97;3.28;;;;;;;11.30;61.47;100038.34;4968795;28;96870;-89
2024/02/04 10:59:19;;;;;;;9.15;3.67;;;;;;;11.30;61.96;100043.63;4977278;28;97354;-88
2024/02/04 11:01:48;;;;;;;7.20;2.90;;;;;;;11.30;61.66;100040.13;4973551;28;98593;-89
2024/02/04 11:04:14;;;;;;;7.65;3.47;;;;;;;11.17;62.22;100046.81;4970242;28;98378;-88
2024/02/04 11:06:44;;;;;;;5.57;3.50;;;;;;;10.91;62.63;100009.34;4975268;28;96758;-89
2024/02/04 11:09:09;;;;;;;8.63;3.33;;;;;;;10.97;62.52;100016.13;4986883;28;97206;-90
2024/02/04 11:11:39;;;;;;;5.78;3.10;;;;;;;10.90;63.22;99994.47;4987935;28;98469;-88
2024/02/04 11:14:09;;;;;;;8.13;3.83;;;;;;;10.98;62.80;100000.28;4971158;28;99516;-89
2024/02/04 11:16:44;;;;;;;7.50;3.20;;;;;;;11.27;62.72;100025.34;4975051;28;96839;-90
2024/02/04 11:19:10;;;;;;;8.95;3.13;;;;;;;11.08;63.29;99991.13;4972995;28;96941;-89
2024/02/04 11:21:52;;;;;;;6.43;3.20;;;;;;;11.24;63.32;100014.97;4972804;28;100868;-90
2024/02/04 11:24:50;;;;;;;9.73;3.22;;;;;;;11.33;63.21;99990.94;4976167;28;100796;-88